TimeCDT,TemperatureF,Dew PointF,Humidity,Sea Level PressureIn,VisibilityMPH,Wind Direction,Wind SpeedMPH,Gust SpeedMPH,PrecipitationIn,Events,Conditions,WindDirDegrees,DateUTC
12:52 AM,61.0,55.0,81,30.16,-9999.0,Calm,Calm,-,N/A,,Unknown,0,2013-08-14 05:52:00
1:52 AM,59.0,55.0,87,30.16,-9999.0,Calm,Calm,-,N/A,,Unknown,0,2013-08-14 06:52:00
2:52 AM,57.9,54.0,87,30.16,-9999.0,NNE,3.5,-,N/A,,Unknown,30,2013-08-14 07:52:00
3:52 AM,57.0,54.0,89,30.17,-9999.0,Calm,Calm,-,N/A,,Unknown,0,2013-08-14 08:52:00
4:52 AM,55.0,52.0,89,30.17,-9999.0,North,3.5,-,N/A,,Unknown,350,2013-08-14 09:52:00
5:52 AM,55.0,52.0,89,30.17,-9999.0,Calm,Calm,-,N/A,,Unknown,0,2013-08-14 10:52:00
6:52 AM,57.0,53.1,87,30.19,-9999.0,Calm,Calm,-,N/A,,Unknown,0,2013-08-14 11:52:00
7:52 AM,61.0,54.0,78,30.21,-9999.0,Calm,Calm,-,N/A,,Unknown,0,2013-08-14 12:52:00
8:52 AM,64.9,55.0,70,30.21,-9999.0,ESE,4.6,-,N/A,,Unknown,110,2013-08-14 13:52:00
9:52 AM,69.1,53.1,57,30.22,-9999.0,Variable,4.6,-,N/A,,Unknown,0,2013-08-14 14:52:00
10:52 AM,72.0,53.1,51,30.22,-9999.0,Variable,4.6,-,N/A,,Unknown,0,2013-08-14 15:52:00
11:52 AM,73.9,52.0,46,30.21,-9999.0,Variable,5.8,-,N/A,,Unknown,0,2013-08-14 16:52:00
12:52 PM,73.9,50.0,43,30.19,-9999.0,Calm,Calm,-,N/A,,Unknown,0,2013-08-14 17:52:00
1:52 PM,77.0,51.1,40,30.17,-9999.0,Calm,Calm,-,N/A,,Unknown,0,2013-08-14 18:52:00
2:52 PM,78.1,52.0,40,30.16,-9999.0,Variable,5.8,-,N/A,,Unknown,0,2013-08-14 19:52:00
3:52 PM,75.0,52.0,44,30.14,-9999.0,Variable,3.5,-,N/A,,Unknown,0,2013-08-14 20:52:00
4:52 PM,77.0,51.1,40,30.13,-9999.0,Variable,5.8,-,N/A,,Unknown,0,2013-08-14 21:52:00
5:52 PM,75.9,51.1,42,30.12,-9999.0,South,3.5,-,N/A,,Unknown,180,2013-08-14 22:52:00
6:52 PM,72.0,57.9,61,30.11,-9999.0,Calm,Calm,-,N/A,,Unknown,0,2013-08-14 23:52:00
7:52 PM,71.1,55.9,59,30.11,-9999.0,Calm,Calm,-,N/A,,Unknown,0,2013-08-15 00:52:00
8:52 PM,70.0,52.0,53,30.12,-9999.0,ESE,3.5,-,N/A,,Unknown,120,2013-08-15 01:52:00
9:52 PM,68.0,54.0,61,30.13,-9999.0,ESE,3.5,-,N/A,,Unknown,120,2013-08-15 02:52:00
10:52 PM,66.9,52.0,59,30.14,-9999.0,SE,4.6,-,N/A,,Unknown,140,2013-08-15 03:52:00
11:52 PM,64.9,53.1,65,30.14,-9999.0,Calm,Calm,-,N/A,,Unknown,0,2013-08-15 04:52:00